ANA1125 RJTT-RJNW
Flight info
| Callsign | ANA1125 |
|---|---|
| Flight time | 0h 40m |
| Altitude | 24000 |
| Route | BEKLA Y885 AZUMI/N0412F230 V57 HAPPO |
| Aircraft | A320/M-SDE3FGHIRWY/LB1 |
Departure
| Time | 2026-05-05 16:22 |
|---|---|
| Airport | Tokyo Haneda International Airport (RJTT) |
Arrival
| Time | 2026-05-05 17:02 |
|---|---|
| Airport | Noto Satoyama Airport (RJNW) |
| Time | Latitude | Longitude | Altitude | Speed | Heading |
|---|---|---|---|---|---|
| 2026-05-05 15:51 | 35.56037 | 139.78274 | 26 ft | 0 kts | 240° |
| 2026-05-05 16:13 | 35.56040 | 139.78280 | 24 ft | 4 kts | 240° |
| 2026-05-05 16:14 | 35.56063 | 139.78339 | 25 ft | 4 kts | 251° |
| 2026-05-05 16:14 | 35.56068 | 139.78401 | 25 ft | 4 kts | 311° |
| 2026-05-05 16:15 | 35.56059 | 139.78410 | 26 ft | 0 kts | 329° |
| 2026-05-05 16:18 | 35.56069 | 139.78403 | 25 ft | 4 kts | 329° |
| 2026-05-05 16:18 | 35.56112 | 139.78372 | 24 ft | 10 kts | 330° |
| 2026-05-05 16:18 | 35.56273 | 139.78259 | 23 ft | 15 kts | 329° |
| 2026-05-05 16:19 | 35.56368 | 139.78191 | 24 ft | 16 kts | 330° |
| 2026-05-05 16:19 | 35.56463 | 139.78123 | 23 ft | 16 kts | 330° |
| 2026-05-05 16:19 | 35.56614 | 139.77916 | 23 ft | 17 kts | 306° |
| 2026-05-05 16:20 | 35.56701 | 139.77673 | 26 ft | 16 kts | 233° |
| 2026-05-05 16:20 | 35.56124 | 139.77170 | 29 ft | 114 kts | 214° |
| 2026-05-05 16:21 | 35.54317 | 139.75656 | 558 ft | 172 kts | 217° |
| 2026-05-05 16:22 | 35.52214 | 139.72420 | 2122 ft | 178 kts | 287° |
| 2026-05-05 16:22 | 35.53610 | 139.69568 | 2849 ft | 220 kts | 308° |
| 2026-05-05 16:23 | 35.54406 | 139.68202 | 3431 ft | 230 kts | 308° |
| 2026-05-05 16:23 | 35.55211 | 139.66875 | 3925 ft | 244 kts | 307° |
| 2026-05-05 16:23 | 35.57190 | 139.63407 | 5820 ft | 251 kts | 304° |
| 2026-05-05 16:24 | 35.58191 | 139.61621 | 6757 ft | 256 kts | 304° |
| 2026-05-05 16:24 | 35.59196 | 139.59830 | 7629 ft | 259 kts | 303° |
| 2026-05-05 16:24 | 35.61280 | 139.56116 | 9491 ft | 265 kts | 304° |
| 2026-05-05 16:25 | 35.62579 | 139.54237 | 9074 ft | 308 kts | 314° |
| 2026-05-05 16:25 | 35.62752 | 139.54027 | 9233 ft | 305 kts | 313° |
| 2026-05-05 16:26 | 35.63161 | 139.53513 | 9506 ft | 307 kts | 312° |
| 2026-05-05 16:26 | 35.65634 | 139.49256 | 10995 ft | 318 kts | 301° |
| 2026-05-05 16:27 | 35.66786 | 139.46899 | 11671 ft | 324 kts | 300° |
| 2026-05-05 16:27 | 35.67961 | 139.44527 | 12500 ft | 326 kts | 301° |
| 2026-05-05 16:27 | 35.69180 | 139.42172 | 13348 ft | 326 kts | 302° |
| 2026-05-05 16:27 | 35.70441 | 139.39840 | 14195 ft | 327 kts | 303° |
| 2026-05-05 16:28 | 35.71724 | 139.37530 | 14933 ft | 328 kts | 302° |
| 2026-05-05 16:28 | 35.73026 | 139.35214 | 15624 ft | 330 kts | 302° |
| 2026-05-05 16:28 | 35.74344 | 139.32880 | 16316 ft | 333 kts | 301° |
| 2026-05-05 16:28 | 35.75668 | 139.30537 | 17002 ft | 335 kts | 301° |
| 2026-05-05 16:29 | 35.77005 | 139.28168 | 17668 ft | 338 kts | 298° |
| 2026-05-05 16:29 | 35.78450 | 139.25869 | 18345 ft | 341 kts | 302° |
| 2026-05-05 16:29 | 35.79835 | 139.23493 | 18929 ft | 342 kts | 300° |
| 2026-05-05 16:29 | 35.81167 | 139.21048 | 19526 ft | 344 kts | 297° |
| 2026-05-05 16:30 | 35.82469 | 139.18601 | 20117 ft | 347 kts | 297° |
| 2026-05-05 16:30 | 35.83800 | 139.16101 | 20694 ft | 350 kts | 296° |
| 2026-05-05 16:30 | 35.85114 | 139.13574 | 21256 ft | 351 kts | 295° |
| 2026-05-05 16:30 | 35.86427 | 139.11017 | 21809 ft | 354 kts | 295° |
| 2026-05-05 16:31 | 35.87741 | 139.08454 | 22289 ft | 355 kts | 295° |
| 2026-05-05 16:31 | 35.89080 | 139.05878 | 22644 ft | 362 kts | 295° |
| 2026-05-05 16:31 | 35.90480 | 139.03296 | 23151 ft | 361 kts | 295° |
| 2026-05-05 16:31 | 35.91843 | 139.00693 | 23664 ft | 362 kts | 294° |
| 2026-05-05 16:32 | 35.93193 | 138.98065 | 24065 ft | 363 kts | 294° |
| 2026-05-05 16:32 | 35.94540 | 138.95429 | 24151 ft | 366 kts | 294° |
| 2026-05-05 16:32 | 35.95922 | 138.92730 | 24176 ft | 374 kts | 295° |
| 2026-05-05 16:32 | 35.97328 | 138.89999 | 24176 ft | 376 kts | 295° |
| 2026-05-05 16:33 | 35.98740 | 138.87273 | 24180 ft | 377 kts | 295° |
| 2026-05-05 16:33 | 36.00158 | 138.84544 | 24178 ft | 378 kts | 295° |
| 2026-05-05 16:33 | 36.01580 | 138.81806 | 24179 ft | 379 kts | 295° |
| 2026-05-05 16:33 | 36.03003 | 138.79065 | 24215 ft | 379 kts | 295° |
| 2026-05-05 16:34 | 36.04417 | 138.76340 | 24187 ft | 378 kts | 295° |
| 2026-05-05 16:34 | 36.05813 | 138.73649 | 24185 ft | 377 kts | 295° |
| 2026-05-05 16:34 | 36.07232 | 138.70910 | 24189 ft | 378 kts | 295° |
| 2026-05-05 16:34 | 36.08647 | 138.68173 | 24189 ft | 378 kts | 295° |
| 2026-05-05 16:35 | 36.10060 | 138.65436 | 24186 ft | 377 kts | 295° |
| 2026-05-05 16:35 | 36.11468 | 138.62703 | 24175 ft | 377 kts | 295° |
| 2026-05-05 16:35 | 36.12882 | 138.59956 | 24176 ft | 378 kts | 295° |
| 2026-05-05 16:35 | 36.14286 | 138.57223 | 24200 ft | 378 kts | 295° |
| 2026-05-05 16:36 | 36.15699 | 138.54472 | 24201 ft | 378 kts | 295° |
| 2026-05-05 16:36 | 36.17112 | 138.51723 | 24199 ft | 378 kts | 295° |
| 2026-05-05 16:36 | 36.18504 | 138.49012 | 24200 ft | 378 kts | 295° |
| 2026-05-05 16:36 | 36.19914 | 138.46263 | 24201 ft | 378 kts | 295° |
| 2026-05-05 16:37 | 36.21319 | 138.43517 | 24191 ft | 378 kts | 296° |
| 2026-05-05 16:37 | 36.22728 | 138.40761 | 24191 ft | 378 kts | 296° |
| 2026-05-05 16:37 | 36.24134 | 138.38010 | 24229 ft | 378 kts | 296° |
| 2026-05-05 16:37 | 36.25547 | 138.35253 | 24224 ft | 378 kts | 296° |
| 2026-05-05 16:38 | 36.26960 | 138.32498 | 24222 ft | 378 kts | 296° |
| 2026-05-05 16:38 | 36.28367 | 138.29751 | 24223 ft | 378 kts | 296° |
| 2026-05-05 16:38 | 36.29304 | 138.27920 | 24221 ft | 378 kts | 296° |
| 2026-05-05 16:38 | 36.30711 | 138.25166 | 24225 ft | 378 kts | 296° |
| 2026-05-05 16:39 | 36.32115 | 138.22408 | 24209 ft | 378 kts | 296° |
| 2026-05-05 16:39 | 36.33514 | 138.19650 | 24228 ft | 378 kts | 296° |
| 2026-05-05 16:39 | 36.34912 | 138.16892 | 24210 ft | 378 kts | 296° |
| 2026-05-05 16:39 | 36.36314 | 138.14126 | 24207 ft | 379 kts | 296° |
| 2026-05-05 16:40 | 36.37713 | 138.11365 | 24207 ft | 379 kts | 296° |
| 2026-05-05 16:40 | 36.39117 | 138.08598 | 24204 ft | 379 kts | 296° |
| 2026-05-05 16:40 | 36.40521 | 138.05830 | 24202 ft | 379 kts | 296° |
| 2026-05-05 16:40 | 36.41935 | 138.03038 | 24206 ft | 379 kts | 296° |
| 2026-05-05 16:41 | 36.43332 | 138.00274 | 24179 ft | 379 kts | 297° |
| 2026-05-05 16:41 | 36.44736 | 137.97501 | 24203 ft | 380 kts | 298° |
| 2026-05-05 16:41 | 36.46490 | 137.94973 | 24245 ft | 393 kts | 310° |
| 2026-05-05 16:41 | 36.48658 | 137.92855 | 24241 ft | 403 kts | 321° |
| 2026-05-05 16:42 | 36.51229 | 137.91347 | 24238 ft | 416 kts | 334° |
| 2026-05-05 16:42 | 36.54105 | 137.90680 | 24235 ft | 431 kts | 348° |
| 2026-05-05 16:42 | 36.57115 | 137.90576 | 24227 ft | 433 kts | 350° |
| 2026-05-05 16:42 | 36.60123 | 137.90498 | 24232 ft | 431 kts | 351° |
| 2026-05-05 16:43 | 36.63127 | 137.90422 | 24244 ft | 430 kts | 351° |
| 2026-05-05 16:43 | 36.66078 | 137.90341 | 24240 ft | 429 kts | 351° |
| 2026-05-05 16:43 | 36.69114 | 137.90251 | 24259 ft | 428 kts | 351° |
| 2026-05-05 16:43 | 36.72041 | 137.90157 | 24253 ft | 428 kts | 351° |
| 2026-05-05 16:44 | 36.75041 | 137.90056 | 24249 ft | 427 kts | 351° |
| 2026-05-05 16:44 | 36.77989 | 137.89958 | 24216 ft | 418 kts | 351° |
| 2026-05-05 16:44 | 36.80837 | 137.89872 | 24207 ft | 412 kts | 351° |
| 2026-05-05 16:44 | 36.83698 | 137.89786 | 24178 ft | 408 kts | 351° |
| 2026-05-05 16:45 | 36.86483 | 137.89706 | 23041 ft | 398 kts | 351° |
| 2026-05-05 16:45 | 36.89268 | 137.89617 | 21224 ft | 404 kts | 351° |
| 2026-05-05 16:45 | 36.92102 | 137.89513 | 19997 ft | 409 kts | 352° |
| 2026-05-05 16:45 | 36.94904 | 137.89413 | 19659 ft | 394 kts | 352° |
| 2026-05-05 16:46 | 36.97605 | 137.89325 | 19137 ft | 385 kts | 353° |
| 2026-05-05 16:46 | 37.00273 | 137.89238 | 18604 ft | 377 kts | 353° |
| 2026-05-05 16:46 | 37.02834 | 137.88982 | 18029 ft | 364 kts | 344° |
| 2026-05-05 16:46 | 37.05193 | 137.88035 | 17548 ft | 350 kts | 332° |
| 2026-05-05 16:47 | 37.07242 | 137.86484 | 17081 ft | 340 kts | 321° |
| 2026-05-05 16:47 | 37.08919 | 137.84453 | 16642 ft | 334 kts | 311° |
| 2026-05-05 16:47 | 37.10181 | 137.82030 | 16199 ft | 330 kts | 300° |
| 2026-05-05 16:47 | 37.10973 | 137.79339 | 15750 ft | 331 kts | 289° |
| 2026-05-05 16:48 | 37.11321 | 137.76516 | 15298 ft | 330 kts | 283° |
| 2026-05-05 16:48 | 37.11587 | 137.73671 | 14819 ft | 326 kts | 283° |
| 2026-05-05 16:48 | 37.11852 | 137.70860 | 14353 ft | 323 kts | 283° |
| 2026-05-05 16:48 | 37.12118 | 137.68077 | 13844 ft | 320 kts | 283° |
| 2026-05-05 16:49 | 37.12379 | 137.65322 | 13323 ft | 317 kts | 283° |
| 2026-05-05 16:49 | 37.12639 | 137.62576 | 12759 ft | 316 kts | 282° |
| 2026-05-05 16:49 | 37.12897 | 137.59844 | 12151 ft | 316 kts | 282° |
| 2026-05-05 16:49 | 37.13153 | 137.57111 | 11611 ft | 314 kts | 281° |
| 2026-05-05 16:50 | 37.13405 | 137.54403 | 11091 ft | 313 kts | 281° |
| 2026-05-05 16:50 | 37.13651 | 137.51714 | 10838 ft | 303 kts | 281° |
| 2026-05-05 16:50 | 37.13881 | 137.49173 | 10713 ft | 281 kts | 281° |
| 2026-05-05 16:50 | 37.14093 | 137.46835 | 10307 ft | 269 kts | 281° |
| 2026-05-05 16:51 | 37.14312 | 137.44479 | 10063 ft | 268 kts | 280° |
| 2026-05-05 16:51 | 37.14528 | 137.42172 | 9869 ft | 267 kts | 280° |
| 2026-05-05 16:51 | 37.14742 | 137.39887 | 9740 ft | 267 kts | 280° |
| 2026-05-05 16:51 | 37.14959 | 137.37578 | 9606 ft | 268 kts | 280° |
| 2026-05-05 16:52 | 37.15231 | 137.35262 | 9349 ft | 265 kts | 282° |
| 2026-05-05 16:52 | 37.15467 | 137.32978 | 9209 ft | 257 kts | 280° |
| 2026-05-05 16:52 | 37.15647 | 137.30796 | 9071 ft | 246 kts | 279° |
| 2026-05-05 16:52 | 37.15809 | 137.28711 | 8942 ft | 236 kts | 279° |
| 2026-05-05 16:53 | 37.15969 | 137.26708 | 8808 ft | 226 kts | 279° |
| 2026-05-05 16:53 | 37.16130 | 137.24782 | 8601 ft | 220 kts | 280° |
| 2026-05-05 16:53 | 37.16293 | 137.22889 | 8317 ft | 218 kts | 280° |
| 2026-05-05 16:53 | 37.16459 | 137.21009 | 8017 ft | 216 kts | 280° |
| 2026-05-05 16:54 | 37.16627 | 137.19141 | 7725 ft | 215 kts | 279° |
| 2026-05-05 16:54 | 37.16794 | 137.17286 | 7427 ft | 214 kts | 279° |
| 2026-05-05 16:54 | 37.16959 | 137.15439 | 7135 ft | 213 kts | 279° |
| 2026-05-05 16:54 | 37.17127 | 137.13593 | 6845 ft | 212 kts | 279° |
| 2026-05-05 16:55 | 37.17294 | 137.11768 | 6630 ft | 207 kts | 279° |
| 2026-05-05 16:55 | 37.17450 | 137.10015 | 6314 ft | 198 kts | 279° |
| 2026-05-05 16:55 | 37.17596 | 137.08362 | 6000 ft | 183 kts | 279° |
| 2026-05-05 16:55 | 37.17730 | 137.06834 | 5740 ft | 170 kts | 279° |
| 2026-05-05 16:56 | 37.17853 | 137.05418 | 5505 ft | 156 kts | 279° |
| 2026-05-05 16:56 | 37.17964 | 137.04147 | 5313 ft | 140 kts | 280° |
| 2026-05-05 16:56 | 37.18069 | 137.02955 | 5125 ft | 136 kts | 280° |
| 2026-05-05 16:56 | 37.18172 | 137.01796 | 4941 ft | 135 kts | 280° |
| 2026-05-05 16:57 | 37.18276 | 137.00628 | 4750 ft | 134 kts | 280° |
| 2026-05-05 16:57 | 37.18381 | 136.99463 | 4568 ft | 134 kts | 279° |
| 2026-05-05 16:57 | 37.18484 | 136.98301 | 4376 ft | 134 kts | 279° |
| 2026-05-05 16:57 | 37.18588 | 136.97147 | 4192 ft | 133 kts | 279° |
| 2026-05-05 16:58 | 37.18692 | 136.95996 | 4006 ft | 133 kts | 279° |
| 2026-05-05 16:58 | 37.18807 | 136.94844 | 3804 ft | 134 kts | 284° |
| 2026-05-05 16:58 | 37.18970 | 136.93715 | 3634 ft | 133 kts | 278° |
| 2026-05-05 16:58 | 37.19137 | 136.92581 | 3466 ft | 132 kts | 287° |
| 2026-05-05 16:59 | 37.19479 | 136.91512 | 3286 ft | 132 kts | 298° |
| 2026-05-05 16:59 | 37.19989 | 136.90556 | 3120 ft | 132 kts | 309° |
| 2026-05-05 16:59 | 37.20641 | 136.89745 | 3034 ft | 133 kts | 319° |
| 2026-05-05 16:59 | 37.21407 | 136.89106 | 2951 ft | 135 kts | 327° |
| 2026-05-05 17:00 | 37.22276 | 136.88700 | 2639 ft | 137 kts | 346° |
| 2026-05-05 17:00 | 37.23239 | 136.88651 | 2373 ft | 142 kts | 359° |
| 2026-05-05 17:00 | 37.24218 | 136.88836 | 2151 ft | 144 kts | 9° |
| 2026-05-05 17:00 | 37.25200 | 136.89152 | 1974 ft | 148 kts | 14° |
| 2026-05-05 17:01 | 37.26179 | 136.89607 | 1829 ft | 151 kts | 23° |
| 2026-05-05 17:01 | 37.27077 | 136.90288 | 1626 ft | 151 kts | 39° |
| 2026-05-05 17:01 | 37.27721 | 136.91305 | 1399 ft | 149 kts | 67° |
| 2026-05-05 17:01 | 37.28053 | 136.92520 | 1209 ft | 143 kts | 70° |
| 2026-05-05 17:02 | 37.28453 | 136.93654 | 1013 ft | 142 kts | 67° |
| 2026-05-05 17:02 | 37.28832 | 136.94786 | 836 ft | 138 kts | 65° |
| 2026-05-05 17:02 | 37.29216 | 136.95872 | 728 ft | 126 kts | 70° |
| 2026-05-05 17:02 | 37.29453 | 136.96567 | 721 ft | 43 kts | 67° |
| 2026-05-05 17:03 | 37.29539 | 136.96818 | 717 ft | 31 kts | 65° |
| 2026-05-05 17:03 | 37.29624 | 136.97067 | 716 ft | 26 kts | 67° |
| 2026-05-05 17:03 | 37.29685 | 136.97186 | 711 ft | 13 kts | 54° |
| 2026-05-05 17:03 | 37.29663 | 136.97221 | 712 ft | 18 kts | 230° |
| 2026-05-05 17:04 | 37.29588 | 136.96960 | 718 ft | 34 kts | 246° |
| 2026-05-05 17:04 | 37.29497 | 136.96695 | 719 ft | 32 kts | 246° |
| 2026-05-05 17:04 | 37.29412 | 136.96449 | 723 ft | 30 kts | 247° |
| 2026-05-05 17:04 | 37.29332 | 136.96219 | 727 ft | 28 kts | 247° |
| 2026-05-05 17:05 | 37.29258 | 136.96005 | 729 ft | 24 kts | 246° |
| 2026-05-05 17:05 | 37.29264 | 136.95858 | 724 ft | 19 kts | 323° |
| 2026-05-05 17:05 | 37.29377 | 136.95794 | 723 ft | 10 kts | 342° |
| 2026-05-05 17:05 | 37.29432 | 136.95790 | 724 ft | 3 kts | 346° |
| 2026-05-05 17:06 | 37.29434 | 136.95789 | 724 ft | 0 kts | 343° |
| 2026-05-05 17:06 | 37.29450 | 136.95781 | 724 ft | 3 kts | 338° |
| 2026-05-05 17:06 | 37.29465 | 136.95773 | 725 ft | 2 kts | 336° |
| 2026-05-05 17:07 | 37.29473 | 136.95769 | 727 ft | 1 kts | 336° |